Time;durP1;ratioP1;P1;durP2;ratioP2;P2;SDS_P1;SDS_P2;PMS_P1;PMS_P2;Temp;Humidity;BMP_temperature;BMP_pressure;BME280_temperature;BME280_humidity;BME280_pressure;Samples;Min_cycle;Max_cycle;Signal;HPM_P1;HPM_P2
2022/06/24 00:02:36;;;;;;;3.93;1.33;;;22.40;82.30;;;;;;10322325;28;20246;-67
2022/06/24 00:07:50;;;;;;;4.33;1.30;;;22.40;82.80;;;;;;10321459;28;20274;-66
2022/06/24 00:12:52;;;;;;;5.23;1.50;;;22.40;83.30;;;;;;10323117;28;20233;-67
2022/06/24 00:17:53;;;;;;;4.87;1.23;;;22.40;83.70;;;;;;10321375;28;20750;-67
2022/06/24 00:22:54;;;;;;;4.43;1.73;;;22.40;84.20;;;;;;10314187;28;20279;-66
2022/06/24 00:28:09;;;;;;;6.40;1.60;;;22.30;84.90;;;;;;10314543;28;20216;-67
2022/06/24 00:33:14;;;;;;;4.77;1.57;;;22.30;86.20;;;;;;10321024;28;20223;-67
2022/06/24 00:38:21;;;;;;;5.30;1.60;;;22.30;87.30;;;;;;10325862;28;20304;-67
2022/06/24 00:43:39;;;;;;;4.40;1.67;;;22.30;88.30;;;;;;10319599;28;20221;-66
2022/06/24 00:48:45;;;;;;;7.07;1.57;;;22.30;89.10;;;;;;10325069;28;20237;-67
2022/06/24 00:53:54;;;;;;;3.10;1.20;;;22.40;89.80;;;;;;10320391;28;20226;-65
2022/06/24 00:58:57;;;;;;;6.20;1.53;;;22.40;90.20;;;;;;10317182;28;20308;-67
2022/06/24 01:03:59;;;;;;;4.07;1.37;;;22.40;90.70;;;;;;10319645;28;20226;-67
2022/06/24 01:09:00;;;;;;;2.43;1.20;;;22.40;91.20;;;;;;10328470;28;20206;-66
2022/06/24 01:14:01;;;;;;;3.23;1.53;;;22.40;91.60;;;;;;10320180;28;20839;-67
2022/06/24 01:19:05;;;;;;;9.17;1.63;;;22.40;92.70;;;;;;10319120;28;20921;-67
2022/06/24 01:24:15;;;;;;;6.17;2.10;;;22.30;95.90;;;;;;10311717;28;20328;-67
2022/06/24 01:29:17;;;;;;;5.07;1.67;;;22.20;99.90;;;;;;10313373;28;20214;-67
2022/06/24 01:34:18;;;;;;;6.83;1.93;;;22.00;99.90;;;;;;10315885;28;20811;-66
2022/06/24 01:39:20;;;;;;;7.00;2.17;;;21.70;99.90;;;;;;10318571;28;20791;-67
2022/06/24 01:44:22;;;;;;;6.53;2.30;;;21.40;99.90;;;;;;10318915;28;20531;-66
2022/06/24 01:49:23;;;;;;;10.20;2.70;;;21.10;99.90;;;;;;10325910;28;20627;-66
2022/06/24 01:54:23;;;;;;;6.70;2.60;;;20.80;99.90;;;;;;10313953;28;20226;-66
2022/06/24 01:59:24;;;;;;;5.67;2.40;;;20.60;99.90;;;;;;10317410;28;20221;-66
2022/06/24 02:04:24;;;;;;;9.13;2.97;;;20.60;99.90;;;;;;10315778;28;20226;-66
2022/06/24 02:09:25;;;;;;;7.20;2.77;;;20.60;99.90;;;;;;10314212;28;20277;-66
2022/06/24 02:14:26;;;;;;;7.93;2.60;;;20.70;99.90;;;;;;10322965;28;20248;-67
2022/06/24 02:19:26;;;;;;;9.57;3.00;;;20.70;99.90;;;;;;10323419;28;20226;-66
2022/06/24 02:24:27;;;;;;;4.47;2.10;;;20.70;99.90;;;;;;10310301;28;20256;-66
2022/06/24 02:29:28;;;;;;;5.80;2.53;;;20.70;99.90;;;;;;10318987;28;20254;-66
2022/06/24 02:34:28;;;;;;;8.60;2.40;;;20.70;99.90;;;;;;10317849;28;20317;-66
2022/06/24 02:39:29;;;;;;;7.30;2.93;;;20.60;99.90;;;;;;10312271;28;20218;-67
2022/06/24 02:44:29;;;;;;;6.00;2.33;;;20.70;99.90;;;;;;10313553;28;20320;-67
2022/06/24 02:49:30;;;;;;;5.53;2.30;;;20.70;99.90;;;;;;10324785;28;20228;-67
2022/06/24 02:54:31;;;;;;;5.13;3.00;;;20.80;99.90;;;;;;10307154;28;20237;-67
2022/06/24 02:59:31;;;;;;;6.60;2.50;;;20.60;99.90;;;;;;10320655;28;20313;-67
2022/06/24 03:04:32;;;;;;;5.13;2.87;;;20.60;99.90;;;;;;10329484;28;20229;-67
2022/06/24 03:09:32;;;;;;;6.70;3.43;;;20.60;99.90;;;;;;10316672;28;20238;-67
2022/06/24 03:14:33;;;;;;;6.43;3.27;;;20.60;99.90;;;;;;10324125;28;20218;-67
2022/06/24 03:19:34;;;;;;;7.40;4.07;;;20.50;99.90;;;;;;10318016;28;20728;-67
2022/06/24 03:24:34;;;;;;;6.27;4.40;;;20.50;99.90;;;;;;10325367;28;20301;-67
2022/06/24 03:29:35;;;;;;;9.00;5.30;;;20.40;99.90;;;;;;10316510;28;20862;-68
2022/06/24 03:34:42;;;;;;;10.53;5.93;;;20.30;99.90;;;;;;10323203;28;20592;-66
2022/06/24 03:39:42;;;;;;;7.07;5.10;;;20.30;99.90;;;;;;10328941;28;20232;-67
2022/06/24 03:44:43;;;;;;;8.10;5.53;;;20.30;99.90;;;;;;10311091;28;20652;-66
2022/06/24 03:49:43;;;;;;;8.17;4.87;;;20.20;99.90;;;;;;10330462;28;20260;-67
2022/06/24 03:54:45;;;;;;;5.77;4.37;;;20.20;99.90;;;;;;10315831;28;20753;-67
2022/06/24 03:59:45;;;;;;;6.47;3.90;;;20.20;99.90;;;;;;10326997;28;20233;-66
2022/06/24 04:04:46;;;;;;;7.43;4.20;;;20.10;99.90;;;;;;10321902;28;20229;-68
2022/06/24 04:09:46;;;;;;;5.67;3.33;;;20.10;99.90;;;;;;10323740;28;20309;-67
2022/06/24 04:15:29;;;;;;;4.60;2.50;;;20.10;99.90;;;;;;10328074;28;20268;-67
2022/06/24 04:20:11;;;;;;;6.67;2.40;;;20.00;99.90;;;;;;10313906;28;20759;-66
2022/06/24 04:25:12;;;;;;;6.73;2.60;;;20.10;99.90;;;;;;10321392;28;20432;-67
2022/06/24 04:30:13;;;;;;;4.50;2.40;;;20.10;99.90;;;;;;10322232;28;20693;-67
2022/06/24 04:35:14;;;;;;;5.60;2.33;;;20.00;99.90;;;;;;10321153;28;20191;-67
2022/06/24 04:40:14;;;;;;;4.63;2.40;;;20.00;99.90;;;;;;10322096;28;20189;-68
2022/06/24 04:45:15;;;;;;;5.60;2.10;;;20.10;99.90;;;;;;10316342;28;20254;-66
2022/06/24 04:50:16;;;;;;;6.20;2.40;;;20.10;99.90;;;;;;10322686;28;20244;-67
2022/06/24 04:55:17;;;;;;;5.43;2.20;;;20.20;99.90;;;;;;10315885;28;20256;-68
2022/06/24 05:00:18;;;;;;;5.87;2.50;;;20.30;99.90;;;;;;10316575;28;20217;-66
2022/06/24 05:05:19;;;;;;;5.90;2.33;;;20.50;99.90;;;;;;10326690;28;20213;-67
2022/06/24 05:10:19;;;;;;;5.33;2.07;;;20.70;99.90;;;;;;10325386;28;20676;-66
2022/06/24 05:15:20;;;;;;;5.47;2.00;;;20.80;99.90;;;;;;10321695;28;20619;-67
2022/06/24 05:20:20;;;;;;;5.60;1.80;;;20.80;99.90;;;;;;10318472;28;20638;-66
2022/06/24 05:25:21;;;;;;;5.90;2.17;;;20.90;99.90;;;;;;10326418;28;20217;-67
2022/06/24 05:30:22;;;;;;;6.83;2.13;;;21.00;99.90;;;;;;10314491;28;20428;-67
2022/06/24 05:35:22;;;;;;;6.07;1.87;;;22.10;99.90;;;;;;10325109;28;20189;-68
2022/06/24 05:40:23;;;;;;;4.53;1.83;;;24.60;99.90;;;;;;10321079;28;21802;-67
2022/06/24 05:45:27;;;;;;;4.33;2.30;;;26.90;99.90;;;;;;10315603;28;20638;-67
2022/06/24 05:50:27;;;;;;;5.10;1.63;;;29.60;99.90;;;;;;10308307;28;20609;-67
2022/06/24 05:55:28;;;;;;;5.63;1.83;;;31.80;98.20;;;;;;10300223;28;20229;-67
2022/06/24 06:00:31;;;;;;;8.10;1.70;;;31.10;94.00;;;;;;10314401;28;20861;-67
2022/06/24 06:05:31;;;;;;;7.23;2.20;;;29.20;96.80;;;;;;10318914;28;20237;-67
2022/06/24 06:10:35;;;;;;;5.20;2.53;;;27.20;99.90;;;;;;10302876;28;20304;-67
2022/06/24 06:15:35;;;;;;;7.73;2.83;;;25.60;99.90;;;;;;10309791;28;20247;-67
2022/06/24 06:20:37;;;;;;;5.17;3.27;;;24.50;99.90;;;;;;10303571;28;20253;-67
2022/06/24 06:25:37;;;;;;;7.90;2.97;;;23.70;99.90;;;;;;10317910;28;20745;-67
2022/06/24 06:30:38;;;;;;;9.27;2.83;;;23.50;99.90;;;;;;10312428;28;20318;-67
2022/06/24 06:35:38;;;;;;;5.97;2.77;;;23.40;99.90;;;;;;10317623;28;20234;-68
2022/06/24 06:40:39;;;;;;;6.33;2.60;;;23.50;99.90;;;;;;10333736;28;20726;-68
2022/06/24 06:45:40;;;;;;;7.43;2.37;;;24.20;99.90;;;;;;10310451;28;20622;-67
2022/06/24 06:50:40;;;;;;;6.33;2.23;;;25.50;99.90;;;;;;10315210;28;20304;-68
2022/06/24 06:55:41;;;;;;;6.53;2.23;;;28.00;99.90;;;;;;10317472;28;20257;-66
2022/06/24 07:00:43;;;;;;;6.90;2.90;;;28.30;99.90;;;;;;10325443;28;20361;-67
2022/06/24 07:05:44;;;;;;;7.03;2.30;;;28.60;99.90;;;;;;10323444;28;20229;-68
2022/06/24 07:10:45;;;;;;;4.43;2.10;;;29.00;99.90;;;;;;10320161;28;20222;-67
2022/06/24 07:15:45;;;;;;;6.30;2.90;;;28.30;99.90;;;;;;10320803;28;20229;-67
2022/06/24 07:20:46;;;;;;;6.43;2.10;;;27.10;99.90;;;;;;10322870;28;20308;-67
2022/06/24 07:25:49;;;;;;;3.07;1.87;;;26.10;99.90;;;;;;10323555;28;20295;-67
2022/06/24 07:30:50;;;;;;;6.63;1.80;;;26.00;99.90;;;;;;10320042;28;20834;-66
2022/06/24 07:35:51;;;;;;;3.00;1.97;;;26.60;99.90;;;;;;10323219;28;20232;-68
2022/06/24 07:40:55;;;;;;;8.47;2.30;;;26.90;99.90;;;;;;10312028;28;20221;-66
2022/06/24 07:45:56;;;;;;;7.93;2.40;;;26.70;99.90;;;;;;10320439;28;20233;-66
2022/06/24 07:50:57;;;;;;;3.20;2.17;;;26.60;99.90;;;;;;10324998;28;20262;-67
2022/06/24 08:01:19;;;;;;;5.33;2.20;;;26.10;99.90;;;;;;10318888;28;20236;-67
2022/06/24 08:06:22;;;;;;;3.03;1.90;;;26.30;99.90;;;;;;10320131;28;20228;-67
2022/06/24 08:11:23;;;;;;;5.27;2.37;;;27.10;99.90;;;;;;10327674;28;20225;-66
2022/06/24 08:16:24;;;;;;;5.53;2.03;;;27.40;99.90;;;;;;10314534;28;20221;-66
2022/06/24 08:21:24;;;;;;;4.87;2.20;;;27.60;99.50;;;;;;10318596;28;20221;-67
2022/06/24 08:26:25;;;;;;;3.87;1.73;;;27.90;99.20;;;;;;10320633;28;20660;-67
2022/06/24 08:31:28;;;;;;;3.90;1.83;;;30.00;95.30;;;;;;10326728;28;20218;-67
2022/06/24 08:42:28;;;;;;;5.00;1.90;;;29.20;93.10;;;;;;10319634;28;20226;-67
2022/06/24 08:47:29;;;;;;;6.10;2.23;;;28.60;93.90;;;;;;10320867;28;20630;-67
2022/06/24 08:52:29;;;;;;;4.83;2.00;;;27.90;95.10;;;;;;10321505;28;20225;-67
2022/06/24 08:57:31;;;;;;;5.77;2.17;;;26.80;96.50;;;;;;10304504;28;20224;-67
2022/06/24 09:02:31;;;;;;;5.57;1.70;;;26.00;98.80;;;;;;10307231;28;20773;-67
2022/06/24 09:07:32;;;;;;;3.53;2.03;;;25.60;99.90;;;;;;10316803;28;20224;-67
2022/06/24 09:12:39;;;;;;;4.17;2.00;;;25.70;99.90;;;;;;10311765;28;20240;-65
2022/06/24 09:17:40;;;;;;;3.70;1.93;;;26.60;99.00;;;;;;10307225;28;20260;-66
2022/06/24 09:22:42;;;;;;;4.47;1.90;;;27.40;96.00;;;;;;10310490;28;20232;-67
2022/06/24 09:27:47;;;;;;;3.67;1.63;;;29.50;93.30;;;;;;10315417;28;20268;-67
2022/06/24 09:32:52;;;;;;;2.43;1.70;;;31.40;79.70;;;;;;10312111;28;20696;-67
2022/06/24 09:37:53;;;;;;;5.03;1.90;;;31.20;78.80;;;;;;10313018;28;20229;-67
2022/06/24 09:43:00;;;;;;;2.63;1.90;;;31.70;78.50;;;;;;10319399;28;20221;-67
2022/06/24 09:48:01;;;;;;;5.40;1.97;;;34.10;64.20;;;;;;10317433;28;20222;-66
2022/06/24 09:53:02;;;;;;;2.83;1.80;;;34.20;61.20;;;;;;10295204;28;20236;-67
2022/06/24 09:58:04;;;;;;;3.47;1.73;;;34.40;57.40;;;;;;10310423;28;20240;-67
2022/06/24 10:03:11;;;;;;;3.33;1.90;;;33.50;59.20;;;;;;10312740;28;20256;-67
2022/06/24 10:08:14;;;;;;;3.13;2.00;;;32.10;61.80;;;;;;10307408;28;20683;-66
2022/06/24 10:13:25;;;;;;;4.73;1.97;;;33.10;59.00;;;;;;10322702;28;20823;-67
2022/06/24 10:18:29;;;;;;;5.03;2.00;;;32.50;59.80;;;;;;10305163;28;20227;-69
2022/06/24 10:23:40;;;;;;;3.90;1.97;;;31.70;61.60;;;;;;10324027;28;20317;-68
2022/06/24 10:28:59;;;;;;;3.30;1.23;;;31.80;62.00;;;;;;10305084;28;20283;-68
2022/06/24 10:34:00;;;;;;;4.40;1.40;;;35.30;56.10;;;;;;10319902;28;20218;-66
2022/06/24 10:39:10;;;;;;;2.87;2.27;;;38.10;49.60;;;;;;10309645;28;20225;-68
2022/06/24 10:44:26;;;;;;;1.20;1.10;;;39.50;43.80;;;;;;10296990;28;20249;-69
2022/06/24 10:49:30;;;;;;;2.53;1.10;;;39.20;42.90;;;;;;10322153;28;20229;-67
2022/06/24 10:54:30;;;;;;;2.10;1.27;;;37.20;43.90;;;;;;10314236;28;20321;-67
2022/06/24 10:59:31;;;;;;;2.67;1.80;;;35.00;48.50;;;;;;10316087;28;20320;-67
2022/06/24 11:04:32;;;;;;;3.77;1.50;;;33.10;53.00;;;;;;10316149;28;20268;-67
2022/06/24 11:09:33;;;;;;;3.83;1.30;;;31.70;54.80;;;;;;10310163;28;20234;-68
2022/06/24 11:14:34;;;;;;;5.37;1.73;;;30.60;57.80;;;;;;10317027;28;20226;-68
2022/06/24 11:19:40;;;;;;;2.70;1.90;;;30.10;59.50;;;;;;10316212;28;20226;-67
2022/06/24 11:24:43;;;;;;;3.70;1.90;;;30.50;59.00;;;;;;10320373;28;20643;-67
2022/06/24 11:29:53;;;;;;;4.17;1.87;;;30.30;60.00;;;;;;10317317;28;20230;-67
2022/06/24 11:34:54;;;;;;;1.70;1.60;;;30.60;58.80;;;;;;10326025;28;20267;-67
2022/06/24 11:39:55;;;;;;;4.47;1.70;;;32.30;57.50;;;;;;10315047;28;20233;-67
2022/06/24 11:44:55;;;;;;;2.47;1.60;;;32.20;56.50;;;;;;10314541;28;20221;-66
2022/06/24 11:49:56;;;;;;;4.63;2.10;;;31.10;58.80;;;;;;10323425;28;20271;-68
2022/06/24 11:54:57;;;;;;;5.87;2.20;;;30.50;59.30;;;;;;10315371;28;20244;-68
2022/06/24 11:59:59;;;;;;;2.50;1.60;;;29.80;63.60;;;;;;10320094;28;20222;-69
2022/06/24 12:05:00;;;;;;;4.90;1.80;;;29.70;61.40;;;;;;10321245;28;20222;-68
2022/06/24 12:10:01;;;;;;;2.70;1.30;;;29.70;61.40;;;;;;10317857;28;20214;-68
2022/06/24 12:15:01;;;;;;;4.53;1.67;;;29.60;61.60;;;;;;10321311;28;20320;-67
2022/06/24 12:20:04;;;;;;;2.10;1.70;;;29.40;61.90;;;;;;10313515;28;20236;-70
2022/06/24 12:25:09;;;;;;;1.90;1.43;;;29.40;60.20;;;;;;10317551;28;20236;-67
2022/06/24 12:30:20;;;;;;;3.37;1.47;;;29.40;60.50;;;;;;10301071;28;20185;-67
2022/06/24 12:35:35;;;;;;;1.50;1.40;;;29.40;59.60;;;;;;10326896;28;20293;-67
2022/06/24 12:40:36;;;;;;;3.40;1.47;;;29.50;60.20;;;;;;10326122;28;20254;-67
2022/06/24 12:45:38;;;;;;;1.83;1.33;;;29.70;59.20;;;;;;10322605;28;20233;-67
2022/06/24 12:50:39;;;;;;;4.67;1.50;;;30.10;58.80;;;;;;10318406;28;20213;-67
2022/06/24 12:55:40;;;;;;;1.40;1.30;;;30.80;56.20;;;;;;10324920;28;20245;-67
2022/06/24 13:00:40;;;;;;;1.57;1.20;;;30.90;56.50;;;;;;10309070;28;20228;-67
2022/06/24 13:05:41;;;;;;;2.87;1.23;;;30.80;56.60;;;;;;10318529;28;20280;-67
2022/06/24 13:10:42;;;;;;;3.33;1.43;;;30.70;55.60;;;;;;10317892;28;20324;-67
2022/06/24 13:15:43;;;;;;;2.10;1.07;;;30.80;56.30;;;;;;10321113;28;20313;-67
2022/06/24 13:20:43;;;;;;;2.43;1.20;;;31.00;56.30;;;;;;10310034;28;20249;-67
2022/06/24 13:25:44;;;;;;;1.50;1.07;;;31.50;53.60;;;;;;10311906;28;20230;-67
2022/06/24 13:30:47;;;;;;;1.50;1.20;;;31.20;54.30;;;;;;10312202;28;20229;-67
2022/06/24 13:40:50;;;;;;;2.23;1.00;;;30.80;56.40;;;;;;10313914;28;20226;-67
2022/06/24 13:45:51;;;;;;;1.73;1.20;;;30.60;54.60;;;;;;10656497;23;20241;-67
2022/06/24 13:50:52;;;;;;;2.40;1.07;;;30.20;55.30;;;;;;10333926;28;20277;-67
2022/06/24 13:55:52;;;;;;;2.33;1.10;;;29.80;54.90;;;;;;10332670;28;20218;-67
2022/06/24 14:00:53;;;;;;;3.13;1.30;;;29.30;56.00;;;;;;10342224;28;20973;-67
2022/06/24 14:05:54;;;;;;;3.60;1.30;;;29.00;58.40;;;;;;10343205;28;20244;-67
2022/06/24 14:10:55;;;;;;;2.27;1.40;;;29.30;57.00;;;;;;10324778;28;20798;-67
2022/06/24 14:15:56;;;;;;;4.50;1.53;;;29.70;56.60;;;;;;10309461;28;20230;-66
2022/06/24 14:20:57;;;;;;;2.40;1.40;;;29.80;57.20;;;;;;10339506;28;20223;-67
2022/06/24 14:25:58;;;;;;;3.60;1.30;;;29.80;57.40;;;;;;10337027;28;20250;-67
2022/06/24 14:31:00;;;;;;;2.80;1.33;;;30.00;56.00;;;;;;10344067;28;20226;-67
2022/06/24 14:36:01;;;;;;;2.40;1.50;;;30.00;56.20;;;;;;10328480;28;20260;-67
2022/06/24 14:41:02;;;;;;;2.07;1.33;;;29.50;57.00;;;;;;10339429;28;20237;-67
2022/06/24 14:46:02;;;;;;;1.77;1.03;;;29.10;57.00;;;;;;10337352;28;20731;-67
2022/06/24 14:51:03;;;;;;;2.03;1.27;;;29.00;57.60;;;;;;10342348;28;20781;-68
2022/06/24 14:56:04;;;;;;;4.03;1.47;;;29.20;57.00;;;;;;10351241;28;20231;-65
2022/06/24 15:01:05;;;;;;;2.83;1.10;;;29.70;55.90;;;;;;10349323;28;20241;-67
2022/06/24 15:06:05;;;;;;;3.13;1.30;;;30.20;54.50;;;;;;10344594;28;20280;-68
2022/06/24 15:11:06;;;;;;;5.60;3.00;;;30.30;53.80;;;;;;10351683;28;20620;-66
2022/06/24 15:16:07;;;;;;;6.20;3.43;;;29.80;55.30;;;;;;10346547;28;20605;-67
2022/06/24 15:21:07;;;;;;;5.60;3.10;;;29.50;57.00;;;;;;10349369;28;20240;-67
2022/06/24 15:26:08;;;;;;;6.90;3.77;;;29.20;57.50;;;;;;10358195;28;20246;-68
2022/06/24 15:31:08;;;;;;;4.53;2.73;;;28.80;58.20;;;;;;10349913;28;20229;-67
2022/06/24 15:36:09;;;;;;;4.33;2.33;;;28.40;59.60;;;;;;10344661;28;20722;-67
2022/06/24 15:41:16;;;;;;;3.17;2.00;;;28.10;61.60;;;;;;10339511;28;20260;-66
2022/06/24 15:46:18;;;;;;;3.40;2.30;;;27.90;63.30;;;;;;10344170;28;20833;-67
2022/06/24 15:51:19;;;;;;;5.67;2.00;;;27.80;64.40;;;;;;10344977;28;20238;-67
2022/06/24 15:56:20;;;;;;;6.47;1.43;;;27.20;68.20;;;;;;10346616;28;20218;-67
2022/06/24 16:01:21;;;;;;;4.70;1.50;;;26.20;70.90;;;;;;10338648;28;20727;-66
2022/06/24 16:06:21;;;;;;;3.53;1.00;;;25.20;75.70;;;;;;10340301;28;20285;-66
2022/06/24 16:11:22;;;;;;;6.20;1.10;;;24.50;84.60;;;;;;10341560;28;20245;-66
2022/06/24 16:16:23;;;;;;;5.03;1.40;;;23.90;88.80;;;;;;10346260;28;20320;-68
2022/06/24 16:21:24;;;;;;;3.43;1.50;;;23.30;91.50;;;;;;10348345;28;20975;-68
2022/06/24 16:31:44;;;;;;;3.70;1.40;;;22.80;96.60;;;;;;10330312;28;20217;-67
2022/06/24 16:36:47;;;;;;;9.87;2.40;;;22.60;99.90;;;;;;10335089;28;20226;-66
2022/06/24 16:41:48;;;;;;;5.13;1.60;;;22.20;99.90;;;;;;10328690;28;20728;-66
2022/06/24 16:46:48;;;;;;;4.13;1.53;;;21.60;99.90;;;;;;10340737;28;20295;-67
2022/06/24 16:51:49;;;;;;;4.77;1.80;;;21.20;99.90;;;;;;10339723;28;20226;-68
2022/06/24 16:56:50;;;;;;;5.67;2.17;;;21.00;99.90;;;;;;10330489;28;20589;-66
2022/06/24 17:01:50;;;;;;;6.90;2.50;;;20.90;99.90;;;;;;10344524;28;20581;-68
2022/06/24 17:06:51;;;;;;;5.53;2.00;;;20.90;99.90;;;;;;10346616;28;20233;-66
2022/06/24 17:11:52;;;;;;;3.87;1.83;;;20.90;99.90;;;;;;10317918;28;20228;-67
2022/06/24 17:16:52;;;;;;;3.70;2.07;;;20.90;99.90;;;;;;10343888;28;20221;-66
2022/06/24 17:21:53;;;;;;;5.17;2.50;;;20.70;99.90;;;;;;10341059;28;20221;-66
2022/06/24 17:26:53;;;;;;;4.70;2.27;;;20.70;99.90;;;;;;10339836;28;20574;-67
2022/06/24 17:31:54;;;;;;;4.87;2.33;;;20.60;99.90;;;;;;10337925;28;20222;-67
2022/06/24 17:36:55;;;;;;;5.77;1.97;;;20.60;99.90;;;;;;10344011;28;20218;-67
2022/06/24 17:41:56;;;;;;;4.27;2.30;;;20.50;99.90;;;;;;10344330;28;20245;-67
2022/06/24 17:46:59;;;;;;;4.17;2.07;;;20.40;99.90;;;;;;10336526;28;20753;-66
2022/06/24 17:51:59;;;;;;;7.73;3.40;;;20.30;99.90;;;;;;10363813;28;20221;-67
2022/06/24 17:57:00;;;;;;;7.03;2.97;;;20.30;99.90;;;;;;10351575;28;20611;-67
2022/06/24 18:02:01;;;;;;;7.23;2.50;;;20.30;99.90;;;;;;10337127;28;20265;-66
2022/06/24 18:07:02;;;;;;;5.40;2.40;;;20.30;99.90;;;;;;10341230;28;20238;-66
2022/06/24 18:12:03;;;;;;;5.93;2.00;;;20.30;99.90;;;;;;10338739;28;20229;-66
2022/06/24 18:17:05;;;;;;;4.47;1.60;;;20.20;99.90;;;;;;10344550;28;20236;-66
2022/06/24 18:22:05;;;;;;;2.10;1.60;;;20.20;99.90;;;;;;10316650;28;20748;-68
2022/06/24 18:27:06;;;;;;;4.40;1.93;;;20.20;99.90;;;;;;10348445;28;20240;-67
2022/06/24 18:32:07;;;;;;;3.07;1.83;;;20.20;99.90;;;;;;10354832;28;20221;-68
2022/06/24 18:37:08;;;;;;;3.33;1.53;;;20.20;99.90;;;;;;10342057;28;20216;-67
2022/06/24 18:42:09;;;;;;;4.23;1.70;;;20.10;99.90;;;;;;10340760;28;20374;-66
2022/06/24 18:47:12;;;;;;;3.13;1.67;;;20.10;99.90;;;;;;10353050;28;20229;-67
2022/06/24 18:52:13;;;;;;;2.47;1.73;;;20.00;99.90;;;;;;10331001;28;20252;-67
2022/06/24 18:57:14;;;;;;;2.87;2.00;;;19.90;99.90;;;;;;10316383;28;20226;-67
2022/06/24 19:02:14;;;;;;;3.63;2.10;;;19.90;99.90;;;;;;10357454;28;20229;-68
2022/06/24 19:07:15;;;;;;;5.30;2.33;;;19.80;99.90;;;;;;10342100;28;20247;-68
2022/06/24 19:12:15;;;;;;;4.37;2.00;;;19.80;99.90;;;;;;10355580;28;20221;-67
2022/06/24 19:17:16;;;;;;;4.10;2.30;;;19.70;99.90;;;;;;10343776;28;20747;-68
2022/06/24 19:22:17;;;;;;;4.20;2.10;;;19.60;99.90;;;;;;10348347;28;20216;-68
2022/06/24 19:27:18;;;;;;;4.57;2.37;;;19.70;99.90;;;;;;10350243;28;20324;-68
2022/06/24 19:32:21;;;;;;;4.90;2.53;;;19.70;99.90;;;;;;10360680;28;20594;-67
2022/06/24 19:37:22;;;;;;;2.23;2.03;;;19.60;99.90;;;;;;10346711;28;20245;-66
2022/06/24 19:42:23;;;;;;;2.73;1.93;;;19.60;99.90;;;;;;10342962;28;20229;-67
2022/06/24 19:47:24;;;;;;;3.07;2.07;;;19.60;99.90;;;;;;10360261;28;20232;-67
2022/06/24 19:52:25;;;;;;;4.40;2.13;;;19.60;99.90;;;;;;10352309;28;20295;-67
2022/06/24 19:57:26;;;;;;;2.47;1.73;;;19.50;99.90;;;;;;10344539;28;20691;-67
2022/06/24 20:07:45;;;;;;;2.30;1.80;;;19.50;99.90;;;;;;10339843;28;20746;-68
2022/06/24 20:12:46;;;;;;;3.03;2.20;;;19.40;99.90;;;;;;10338831;28;20333;-66
2022/06/24 20:17:48;;;;;;;2.37;2.00;;;19.40;99.90;;;;;;10355515;28;20217;-66
2022/06/24 20:22:48;;;;;;;5.33;2.10;;;19.40;99.90;;;;;;10338513;28;20241;-66
2022/06/24 20:27:49;;;;;;;3.43;2.30;;;19.40;99.90;;;;;;10339007;28;20228;-68
2022/06/24 20:32:50;;;;;;;3.07;2.37;;;19.30;99.90;;;;;;10343183;28;20311;-66
2022/06/24 20:37:51;;;;;;;5.13;2.30;;;19.30;99.90;;;;;;10346780;28;20308;-67
2022/06/24 20:42:54;;;;;;;4.27;2.33;;;19.30;99.90;;;;;;10328319;28;20239;-66
2022/06/24 20:47:54;;;;;;;3.37;2.33;;;19.40;99.90;;;;;;10352277;28;20232;-66
2022/06/24 20:52:55;;;;;;;4.40;2.97;;;19.30;99.90;;;;;;10335061;28;20220;-66
2022/06/24 20:57:55;;;;;;;3.83;2.20;;;19.30;99.90;;;;;;10346321;28;20248;-66
2022/06/24 21:02:56;;;;;;;2.73;2.10;;;19.20;99.90;;;;;;10334136;28;20233;-66
2022/06/24 21:07:57;;;;;;;3.40;2.77;;;19.20;99.90;;;;;;10336241;28;20220;-66
2022/06/24 21:12:57;;;;;;;4.33;2.80;;;19.10;99.90;;;;;;10340496;28;20744;-68
2022/06/24 21:17:58;;;;;;;5.10;3.43;;;19.10;99.90;;;;;;10331600;28;20261;-66
2022/06/24 21:22:59;;;;;;;7.33;3.27;;;19.00;99.90;;;;;;10333442;28;20767;-66
2022/06/24 21:27:59;;;;;;;6.10;3.90;;;18.90;99.90;;;;;;10320647;28;20247;-68
2022/06/24 21:33:00;;;;;;;4.30;3.57;;;18.90;99.90;;;;;;10335851;28;20287;-67
2022/06/24 21:38:01;;;;;;;4.87;3.50;;;18.90;99.90;;;;;;10341683;28;20262;-66
2022/06/24 21:43:02;;;;;;;5.63;3.80;;;18.80;99.90;;;;;;10326351;28;20248;-67
2022/06/24 21:48:03;;;;;;;4.57;4.17;;;18.70;99.90;;;;;;10329464;28;20228;-68
2022/06/24 21:53:04;;;;;;;4.67;4.00;;;18.60;99.90;;;;;;10324509;28;20220;-68
2022/06/24 21:58:08;;;;;;;6.37;4.23;;;18.50;99.90;;;;;;10326457;28;20232;-68
2022/06/24 22:03:11;;;;;;;6.90;4.30;;;18.50;99.90;;;;;;10343733;28;20236;-68
2022/06/24 22:08:12;;;;;;;8.17;4.00;;;18.40;99.90;;;;;;10335422;28;20237;-68
2022/06/24 22:13:13;;;;;;;5.90;4.00;;;18.30;99.90;;;;;;10342266;28;20370;-67
2022/06/24 22:18:14;;;;;;;6.23;3.63;;;18.20;99.90;;;;;;10338298;28;20223;-67
2022/06/24 22:23:14;;;;;;;7.73;4.33;;;18.20;99.90;;;;;;10322501;28;20233;-67
2022/06/24 22:28:15;;;;;;;4.57;3.80;;;18.10;99.90;;;;;;10337990;28;20290;-68
2022/06/24 22:33:16;;;;;;;6.47;4.10;;;18.00;99.90;;;;;;10342027;28;20242;-68
2022/06/24 22:38:16;;;;;;;7.80;3.80;;;18.00;99.90;;;;;;10333695;28;20741;-69
2022/06/24 22:43:20;;;;;;;7.03;3.97;;;18.00;99.90;;;;;;10316911;28;20224;-68
2022/06/24 22:48:21;;;;;;;6.07;4.07;;;17.90;99.90;;;;;;10343185;28;20277;-67
2022/06/24 22:53:22;;;;;;;9.23;4.23;;;17.90;99.90;;;;;;10320809;28;20236;-68
2022/06/24 22:58:23;;;;;;;5.37;4.47;;;17.90;99.90;;;;;;10347016;28;20228;-67
2022/06/24 23:03:23;;;;;;;4.83;4.03;;;17.80;99.90;;;;;;10328995;28;20229;-68
2022/06/24 23:08:24;;;;;;;6.13;3.77;;;17.80;99.90;;;;;;10339273;28;20223;-68
2022/06/24 23:13:25;;;;;;;7.77;4.00;;;17.80;99.90;;;;;;10355273;28;20218;-67
2022/06/24 23:18:25;;;;;;;3.93;3.50;;;17.70;99.90;;;;;;10349560;28;20305;-68
2022/06/24 23:23:26;;;;;;;4.30;3.10;;;17.70;99.90;;;;;;10352424;28;20326;-69
2022/06/24 23:28:27;;;;;;;5.37;3.53;;;17.70;99.90;;;;;;10354855;28;20969;-67
2022/06/24 23:33:27;;;;;;;4.07;3.30;;;17.70;99.90;;;;;;10361165;28;20294;-67
2022/06/24 23:38:31;;;;;;;7.57;3.03;;;17.70;99.90;;;;;;10344855;28;20215;-67
2022/06/24 23:43:32;;;;;;;3.70;3.10;;;17.70;99.90;;;;;;10351312;28;20243;-68
2022/06/24 23:53:51;;;;;;;4.20;3.10;;;17.70;99.90;;;;;;10333297;28;20217;-68
2022/06/24 23:58:53;;;;;;;4.33;2.87;;;17.70;99.90;;;;;;10338441;28;20222;-66
